Delta — PDPC — position and weather

sailwx.info

Track history (hours):
 
Tides and Currents Weather Stations Pressure Air Temp Water Temp Dewpoint Dewpoint Depression Visibility Wind Speed Wind Dir Waves Ship Positions

Oceanographic research ship Delta (Netherlands)

Detailed information on ship capabilities available from University of Delaware's Ocean Information Center.

Last reported at 2019-Dec-10 21:33 UTC. Time now 2019-Dec-11 11:30 UTC.
Position N 51°27' E 004°01'.

MMSI: 244696464.

Date/timePositionNaut miles runAvg speedWind from/ knotsBaromVisibWave heightAir tempDewpointWater temp
2019-Dec-10 21:33N 51°27' E 004°01'0 0.0
2019-Dec-10 20:24N 51°27' E 004°01'0 0.0
2019-Dec-10 18:18N 51°27' E 004°01'1 0.2
2019-Dec-10 12:53N 51°26' E 004°01'3 7.3
2019-Dec-10 12:30N 51°24' E 003°58'8 7.7
2019-Dec-10 11:27N 51°22' E 003°45'8 8.3
2019-Dec-10 10:30N 51°25' E 003°34'  
2019-Dec-05 08:56N 51°27' E 003°36'2 0.1
2019-Dec-04 12:00N 51°27' E 003°32'1 0.5
2019-Dec-04 09:30N 51°27' E 003°33'1 0.5
2019-Dec-04 06:19N 51°27' E 003°36'0 0.0
2019-Dec-04 05:22N 51°27' E 003°36'0 0.0
2019-Dec-04 04:59N 51°27' E 003°36'0 0.0
2019-Dec-04 03:54N 51°27' E 003°36'0 0.0
2019-Dec-04 03:29N 51°27' E 003°36'0 0.0
2019-Dec-04 02:28N 51°27' E 003°36'0 0.0
2019-Dec-04 01:56N 51°27' E 003°36'0 0.0
2019-Dec-04 00:30N 51°27' E 003°36'0 0.0
2019-Dec-03 23:30N 51°27' E 003°36'0 0.0
2019-Dec-03 21:14N 51°27' E 003°36'0 0.0
2019-Dec-03 20:55N 51°27' E 003°36'0 0.0
2019-Dec-03 20:16N 51°27' E 003°36'0 0.0
2019-Dec-03 11:14N 51°27' E 003°36'12 7.0
2019-Dec-03 09:29N 51°25' E 003°55'4 1.1
2019-Dec-03 05:24N 51°27' E 004°01'1 0.0
2019-Dec-02 07:29N 51°28' E 004°01'  
Track history (hours):
 
Tides and Currents Weather Stations Pressure Air Temp Water Temp Dewpoint Dewpoint Depression Visibility Wind Speed Wind Dir Waves Ship Positions

Oceanographic research ship Delta (Netherlands)

Detailed information on ship capabilities available from University of Delaware's Ocean Information Center.

Last reported at 2019-Dec-10 21:33 UTC. Time now 2019-Dec-11 11:30 UTC.
Position N 51°27' E 004°01'.

MMSI: 244696464.

Date/timePositionNaut miles runAvg speedWind from/ knotsBaromVisibWave heightAir tempDewpointWater temp
2019-Dec-10 21:33N 51°27' E 004°01'0 0.0
2019-Dec-10 20:24N 51°27' E 004°01'0 0.0
2019-Dec-10 18:18N 51°27' E 004°01'1 0.2
2019-Dec-10 12:53N 51°26' E 004°01'3 7.3
2019-Dec-10 12:30N 51°24' E 003°58'8 7.7
2019-Dec-10 11:27N 51°22' E 003°45'8 8.3
2019-Dec-10 10:30N 51°25' E 003°34'  
2019-Dec-05 08:56N 51°27' E 003°36'2 0.1
2019-Dec-04 12:00N 51°27' E 003°32'1 0.5
2019-Dec-04 09:30N 51°27' E 003°33'1 0.5
2019-Dec-04 06:19N 51°27' E 003°36'0 0.0
2019-Dec-04 05:22N 51°27' E 003°36'0 0.0
2019-Dec-04 04:59N 51°27' E 003°36'0 0.0
2019-Dec-04 03:54N 51°27' E 003°36'0 0.0
2019-Dec-04 03:29N 51°27' E 003°36'0 0.0
2019-Dec-04 02:28N 51°27' E 003°36'0 0.0
2019-Dec-04 01:56N 51°27' E 003°36'0 0.0
2019-Dec-04 00:30N 51°27' E 003°36'0 0.0
2019-Dec-03 23:30N 51°27' E 003°36'0 0.0
2019-Dec-03 21:14N 51°27' E 003°36'0 0.0
2019-Dec-03 20:55N 51°27' E 003°36'0 0.0
2019-Dec-03 20:16N 51°27' E 003°36'0 0.0
2019-Dec-03 11:14N 51°27' E 003°36'12 7.0
2019-Dec-03 09:29N 51°25' E 003°55'4 1.1
2019-Dec-03 05:24N 51°27' E 004°01'1 0.0
2019-Dec-02 07:29N 51°28' E 004°01'  

Dump ship's entire track history